createdAt,value
2023-03-02T00:02:22.797Z,95652.05
2023-03-02T00:04:59.514Z,95651.58
2023-03-02T00:07:33.949Z,95646.39
2023-03-02T00:10:03.062Z,95653.12
2023-03-02T00:12:34.204Z,95652.05
2023-03-02T00:15:03.103Z,95656.24
2023-03-02T00:17:33.292Z,95645.08
2023-03-02T00:20:03.533Z,95644.30
2023-03-02T00:22:33.767Z,95638.91
2023-03-02T00:25:02.361Z,95642.95
2023-03-02T00:27:31.188Z,95636.95
2023-03-02T00:29:59.863Z,95635.05
2023-03-02T00:32:31.718Z,95632.27
2023-03-02T00:35:00.263Z,95624.55
2023-03-02T00:37:30.575Z,95627.19
2023-03-02T00:40:01.605Z,95626.59
2023-03-02T00:42:32.744Z,95617.97
2023-03-02T00:45:01.648Z,95611.98
2023-03-02T00:47:31.133Z,95612.17
2023-03-02T00:49:59.717Z,95611.69
2023-03-02T00:52:30.080Z,95613.02
2023-03-02T00:54:58.667Z,95609.16
2023-03-02T00:57:35.161Z,95604.93
2023-03-02T01:00:04.597Z,95604.13
2023-03-02T01:02:33.395Z,95603.14
2023-03-02T01:05:02.003Z,95598.06
2023-03-02T01:07:31.988Z,95590.17
2023-03-02T01:10:04.902Z,95594.73
2023-03-02T01:12:34.991Z,95592.52
2023-03-02T01:15:04.026Z,95588.27
2023-03-02T01:17:37.112Z,95584.55
2023-03-02T01:20:09.489Z,95578.30
2023-03-02T01:22:41.364Z,95580.28
2023-03-02T01:25:19.579Z,95578.73
2023-03-02T01:27:48.564Z,95577.24
2023-03-02T01:30:19.097Z,95580.73
2023-03-02T01:32:48.015Z,95586.45
2023-03-02T01:35:17.973Z,95583.23
2023-03-02T01:37:48.145Z,95580.18
2023-03-02T01:40:21.308Z,95586.41
2023-03-02T01:42:53.630Z,95585.24
2023-03-02T01:45:58.623Z,95577.43
2023-03-02T01:48:44.720Z,95577.02
2023-03-02T01:51:16.319Z,95571.92
2023-03-02T01:53:47.865Z,95572.84
2023-03-02T01:56:20.549Z,95497.83
2023-03-02T01:58:52.354Z,95571.70
2023-03-02T02:01:21.467Z,95573.02
2023-03-02T02:03:52.196Z,95562.45
2023-03-02T02:06:26.311Z,95564.83
2023-03-02T02:08:57.519Z,95559.80
2023-03-02T02:11:26.547Z,95560.42
2023-03-02T02:14:00.681Z,95555.09
2023-03-02T02:16:35.020Z,95561.55
2023-03-02T02:19:05.867Z,95559.28
2023-03-02T02:21:34.520Z,95562.53
2023-03-02T02:24:18.222Z,95560.34
2023-03-02T02:26:58.034Z,95568.31
2023-03-02T02:29:33.099Z,95564.89
2023-03-02T02:32:19.050Z,95560.83
2023-03-02T02:35:15.200Z,95566.77
2023-03-02T02:37:49.729Z,95564.95
2023-03-02T02:40:43.675Z,95561.62
2023-03-02T02:43:16.257Z,95562.67
2023-03-02T02:45:48.739Z,95561.17
2023-03-02T02:48:21.181Z,95557.25
2023-03-02T02:50:51.830Z,95559.70
2023-03-02T02:53:26.509Z,95553.65
2023-03-02T02:55:58.115Z,95559.59
2023-03-02T02:58:52.525Z,95559.85
2023-03-02T03:01:27.492Z,95556.34
2023-03-02T03:03:59.044Z,95550.69
2023-03-02T03:06:35.196Z,95547.94
2023-03-02T03:09:03.943Z,95549.08
2023-03-02T03:11:42.125Z,95551.02
2023-03-02T03:14:16.819Z,95547.43
2023-03-02T03:16:48.288Z,95547.55
2023-03-02T03:19:29.334Z,95542.80
2023-03-02T03:22:01.300Z,95536.67
2023-03-02T03:24:32.628Z,95545.08
2023-03-02T03:27:05.757Z,95545.26
2023-03-02T03:29:35.874Z,95541.27
2023-03-02T03:32:07.020Z,95548.30
2023-03-02T03:34:42.057Z,95548.34
2023-03-02T03:37:13.848Z,95552.42
2023-03-02T03:39:42.928Z,95548.86
2023-03-02T03:42:12.248Z,95550.33
2023-03-02T03:44:42.400Z,95554.95
2023-03-02T03:47:14.298Z,95548.09
2023-03-02T03:49:42.893Z,95546.22
2023-03-02T03:52:11.467Z,95549.30
2023-03-02T03:54:40.265Z,95542.55
2023-03-02T03:57:13.757Z,95546.72
2023-03-02T03:59:42.362Z,95551.35
2023-03-02T04:02:12.261Z,95544.85
2023-03-02T04:04:44.016Z,95547.61
2023-03-02T04:07:13.343Z,95549.63
2023-03-02T04:09:46.320Z,95549.10
2023-03-02T04:12:16.761Z,95553.52
2023-03-02T04:14:45.677Z,95549.66
2023-03-02T04:17:16.533Z,95536.40
2023-03-02T04:19:45.879Z,95550.64
2023-03-02T04:22:15.833Z,95538.80
2023-03-02T04:24:48.893Z,95552.86
2023-03-02T04:27:18.718Z,95543.87
2023-03-02T04:29:47.993Z,95545.62
2023-03-02T04:32:16.698Z,95542.21
2023-03-02T04:34:45.254Z,95539.42
2023-03-02T04:37:15.589Z,95540.26
2023-03-02T04:39:57.796Z,95540.26
2023-03-02T04:42:26.219Z,95536.70
2023-03-02T04:44:56.082Z,95541.80
2023-03-02T04:47:25.436Z,95548.69
2023-03-02T04:49:54.988Z,95554.34
2023-03-02T04:52:23.696Z,95556.70
2023-03-02T04:54:52.980Z,95560.56
2023-03-02T04:57:21.975Z,95562.80
2023-03-02T04:59:50.645Z,95548.48
2023-03-02T05:02:19.339Z,95558.75
2023-03-02T05:04:48.144Z,95555.28
2023-03-02T05:07:16.759Z,95555.28
2023-03-02T05:09:45.424Z,95552.78
2023-03-02T05:12:13.977Z,95552.41
2023-03-02T05:14:45.432Z,95555.71
2023-03-02T05:17:12.993Z,95556.59
2023-03-02T05:19:41.647Z,95563.31
2023-03-02T05:22:10.178Z,95561.66
2023-03-02T05:24:38.790Z,95561.19
2023-03-02T05:27:08.958Z,95563.95
2023-03-02T05:29:37.645Z,95570.05
2023-03-02T05:32:06.567Z,95568.25
2023-03-02T05:34:35.291Z,95563.22
2023-03-02T05:37:03.799Z,95570.30
2023-03-02T05:39:32.403Z,95577.38
2023-03-02T05:42:01.062Z,95572.34
2023-03-02T05:44:29.773Z,95573.39
2023-03-02T05:46:58.484Z,95577.30
2023-03-02T05:49:27.076Z,95585.45
2023-03-02T05:51:55.709Z,95576.56
2023-03-02T05:54:24.375Z,95578.77
2023-03-02T05:56:53.039Z,95569.06
2023-03-02T05:59:26.007Z,95578.77
2023-03-02T06:01:56.304Z,95577.36
2023-03-02T06:04:28.553Z,95583.00
2023-03-02T06:06:57.267Z,95587.91
2023-03-02T06:09:25.944Z,95582.73
2023-03-02T06:11:54.471Z,95584.61
2023-03-02T06:14:23.071Z,95585.03
2023-03-02T06:16:51.677Z,95590.09
2023-03-02T06:19:20.371Z,95592.75
2023-03-02T06:21:48.927Z,95601.02
2023-03-02T06:24:17.745Z,95600.92
2023-03-02T06:26:46.510Z,95605.16
2023-03-02T06:29:15.115Z,95602.92
2023-03-02T06:31:43.723Z,95601.02
2023-03-02T06:34:12.480Z,95603.34
2023-03-02T06:36:41.131Z,95605.04
2023-03-02T06:39:15.255Z,95612.66
2023-03-02T06:41:45.970Z,95611.52
2023-03-02T06:44:16.220Z,95608.50
2023-03-02T06:46:45.784Z,95605.08
2023-03-02T06:49:14.463Z,95600.05
2023-03-02T06:51:43.239Z,95598.42
2023-03-02T06:54:13.648Z,95604.02
2023-03-02T06:56:42.483Z,95610.54
2023-03-02T06:59:29.385Z,95607.92
2023-03-02T07:01:58.249Z,95603.37
2023-03-02T07:04:28.516Z,95605.69
2023-03-02T07:06:57.697Z,95602.17
2023-03-02T07:09:30.085Z,95601.28
2023-03-02T07:11:58.923Z,95604.25
2023-03-02T07:14:27.706Z,95601.95
2023-03-02T07:16:58.264Z,95604.91
2023-03-02T07:19:26.892Z,95602.06
2023-03-02T07:21:55.716Z,95608.06
2023-03-02T07:24:24.308Z,95603.64
2023-03-02T07:26:55.595Z,95606.94
2023-03-02T07:29:24.270Z,95601.25
2023-03-02T07:31:54.533Z,95606.98
2023-03-02T07:34:23.182Z,95607.47
2023-03-02T07:36:51.952Z,95611.58
2023-03-02T07:39:21.400Z,95609.25
2023-03-02T07:41:51.631Z,95609.47
2023-03-02T07:44:20.218Z,95610.05
2023-03-02T07:46:48.937Z,95611.02
2023-03-02T07:49:17.519Z,95621.41
2023-03-02T07:51:46.328Z,95611.70
2023-03-02T07:54:14.954Z,95610.80
2023-03-02T07:56:49.921Z,95611.78
2023-03-02T07:59:18.610Z,95611.01
2023-03-02T08:01:47.249Z,95610.34
2023-03-02T08:04:15.769Z,95605.23
2023-03-02T08:06:47.395Z,95602.56
2023-03-02T08:09:17.008Z,95605.72
2023-03-02T08:11:47.864Z,95605.38
2023-03-02T08:14:16.552Z,95605.38
2023-03-02T08:16:45.130Z,95604.17
2023-03-02T08:19:13.872Z,95539.92
2023-03-02T08:21:48.615Z,95601.92
2023-03-02T08:24:17.898Z,95595.74
2023-03-02T08:26:46.628Z,95595.54
2023-03-02T08:29:15.334Z,95599.52
2023-03-02T08:31:46.829Z,95595.33
2023-03-02T08:34:15.794Z,95587.16
2023-03-02T08:36:45.152Z,95595.94
2023-03-02T08:39:14.221Z,95602.08
2023-03-02T08:41:43.095Z,95596.84
2023-03-02T08:44:13.588Z,95589.77
2023-03-02T08:46:42.285Z,95591.30
2023-03-02T08:49:11.177Z,95593.22
2023-03-02T08:51:39.850Z,95589.50
2023-03-02T08:54:08.882Z,95585.98
2023-03-02T08:56:39.718Z,95595.13
2023-03-02T08:59:13.479Z,95586.64
2023-03-02T09:01:48.209Z,95586.65
2023-03-02T09:04:17.144Z,95586.94
2023-03-02T09:06:46.798Z,95584.20
2023-03-02T09:09:16.381Z,95578.81
2023-03-02T09:11:45.284Z,95575.77
2023-03-02T09:14:16.770Z,95579.92
2023-03-02T09:16:49.687Z,95568.55
2023-03-02T09:19:19.896Z,95572.78
2023-03-02T09:21:50.999Z,95571.83
2023-03-02T09:24:21.051Z,95582.34
2023-03-02T09:26:49.575Z,95586.03
2023-03-02T09:29:18.212Z,95574.89
2023-03-02T09:31:48.009Z,95582.19
2023-03-02T09:34:16.537Z,95580.87
2023-03-02T09:36:45.926Z,95578.81
2023-03-02T09:39:14.767Z,95573.98
2023-03-02T09:41:49.298Z,95581.29
2023-03-02T09:44:54.292Z,95575.20
2023-03-02T09:47:40.917Z,95568.63
2023-03-02T09:50:15.164Z,95570.34
2023-03-02T09:52:58.952Z,95570.91
2023-03-02T09:55:30.487Z,95565.66
2023-03-02T09:58:02.009Z,95562.16
2023-03-02T10:00:44.034Z,95564.36
2023-03-02T10:03:18.774Z,95535.48
2023-03-02T10:05:55.622Z,95569.08
2023-03-02T10:08:27.548Z,95566.88
2023-03-02T10:11:05.239Z,95572.47
2023-03-02T10:13:53.185Z,95576.46
2023-03-02T10:16:24.824Z,95560.66
2023-03-02T10:19:05.678Z,95572.73
2023-03-02T10:21:43.231Z,95578.26
2023-03-02T10:24:23.785Z,95567.45
2023-03-02T10:27:04.000Z,95566.52
2023-03-02T10:29:35.761Z,95568.97
2023-03-02T10:32:07.564Z,95560.81
2023-03-02T10:34:38.979Z,95563.23
2023-03-02T10:37:13.498Z,95562.59
2023-03-02T10:39:43.945Z,95567.13
2023-03-02T10:42:15.575Z,95554.95
2023-03-02T10:44:48.180Z,95557.47
2023-03-02T10:47:28.445Z,95557.75
2023-03-02T10:49:58.998Z,95558.63
2023-03-02T10:52:31.373Z,95553.92
2023-03-02T10:55:14.775Z,95552.64
2023-03-02T10:57:47.473Z,95553.78
2023-03-02T11:00:27.516Z,95545.22
2023-03-02T11:03:04.486Z,95544.17
2023-03-02T11:05:43.056Z,95468.98
2023-03-02T11:08:14.232Z,95542.41
2023-03-02T11:11:01.125Z,95537.04
2023-03-02T11:13:40.019Z,95533.29
2023-03-02T11:16:24.060Z,95537.67
2023-03-02T11:19:10.727Z,95536.91
2023-03-02T11:21:54.069Z,95532.25
2023-03-02T11:24:31.705Z,95521.93
2023-03-02T11:30:27.865Z,95530.37
2023-03-02T11:33:08.252Z,95527.62
2023-03-02T11:35:52.212Z,95521.30
2023-03-02T11:38:45.637Z,95480.52
2023-03-02T11:41:36.730Z,95515.09
2023-03-02T11:44:17.380Z,95505.30
2023-03-02T11:46:51.968Z,95514.04
2023-03-02T11:49:39.270Z,95517.52
2023-03-02T11:52:10.867Z,95509.34
2023-03-02T11:54:51.944Z,95509.84
2023-03-02T11:57:32.438Z,95510.68
2023-03-02T12:00:01.824Z,95508.06
2023-03-02T12:02:36.443Z,95513.13
2023-03-02T12:05:08.534Z,95505.83
2023-03-02T12:07:37.311Z,95505.97
2023-03-02T12:10:09.219Z,95509.70
2023-03-02T12:12:41.589Z,95508.97
2023-03-02T12:15:31.497Z,95508.59
2023-03-02T12:18:01.656Z,95516.28
2023-03-02T12:20:31.554Z,95507.04
2023-03-02T12:23:18.080Z,95505.18
2023-03-02T12:25:49.470Z,95499.50
2023-03-02T12:28:30.005Z,95500.75
2023-03-02T12:31:04.134Z,95496.42
2023-03-02T12:33:32.808Z,95490.81
2023-03-02T12:36:10.282Z,95492.66
2023-03-02T12:38:41.891Z,95498.34
2023-03-02T12:41:32.025Z,95464.51
2023-03-02T12:47:05.024Z,95497.13
2023-03-02T12:49:42.287Z,95506.44
2023-03-02T12:52:29.041Z,95506.64
2023-03-02T12:55:06.680Z,95507.61
2023-03-02T12:57:49.801Z,95504.15
2023-03-02T13:00:22.443Z,95496.69
2023-03-02T13:03:01.732Z,95495.33
2023-03-02T13:05:52.821Z,95490.51
2023-03-02T13:08:29.866Z,95490.09
2023-03-02T13:11:01.833Z,95479.45
2023-03-02T13:13:42.348Z,95474.55
2023-03-02T13:16:23.251Z,95475.23
2023-03-02T13:19:00.729Z,95473.37
2023-03-02T13:21:51.140Z,95468.83
2023-03-02T13:27:23.040Z,95462.58
2023-03-02T13:29:58.356Z,95466.42
2023-03-02T13:32:30.900Z,95464.37
2023-03-02T13:35:03.525Z,95464.09
2023-03-02T13:37:44.224Z,95456.38
2023-03-02T13:40:29.697Z,95448.20
2023-03-02T13:42:58.900Z,95424.64
2023-03-02T13:45:50.463Z,95446.28
2023-03-02T13:48:19.091Z,95438.31
2023-03-02T13:51:08.868Z,95438.25
2023-03-02T13:53:47.532Z,95436.75
2023-03-02T13:56:32.855Z,95439.45
2023-03-02T13:59:06.833Z,95440.32
2023-03-02T14:01:37.581Z,95443.72
2023-03-02T14:07:04.716Z,95432.41
2023-03-02T14:10:18.112Z,95438.38
2023-03-02T14:12:47.719Z,95445.02
2023-03-02T14:28:34.960Z,95420.80
2023-03-02T14:37:23.554Z,95421.30
2023-03-02T14:39:56.916Z,95429.70
2023-03-02T14:42:27.034Z,95427.55
2023-03-02T14:44:56.042Z,95426.06
2023-03-02T14:47:24.671Z,95425.29
2023-03-02T14:49:53.623Z,95425.98
2023-03-02T14:52:33.704Z,95428.33
2023-03-02T14:55:05.450Z,95426.78
2023-03-02T14:57:38.566Z,95430.52
2023-03-02T15:00:18.085Z,95431.54
2023-03-02T15:02:48.050Z,95424.91
2023-03-02T15:05:17.020Z,95423.61
2023-03-02T15:07:46.200Z,95426.16
2023-03-02T15:10:21.089Z,95430.14
2023-03-02T15:12:51.265Z,95424.55
2023-03-02T15:15:22.471Z,95425.67
2023-03-02T15:17:51.891Z,95432.38
2023-03-02T15:20:23.441Z,95434.83
2023-03-02T15:22:52.113Z,95430.42
2023-03-02T15:25:24.244Z,95441.10
2023-03-02T15:27:54.593Z,95432.96
2023-03-02T15:30:25.141Z,95432.14
2023-03-02T15:32:56.712Z,95432.38
2023-03-02T15:35:25.281Z,95435.06
2023-03-02T15:37:55.195Z,95437.09
2023-03-02T15:40:23.872Z,95437.55
2023-03-02T15:42:53.213Z,95435.83
2023-03-02T15:45:21.913Z,95433.95
2023-03-02T15:47:55.848Z,95440.70
2023-03-02T15:50:24.461Z,95447.45
2023-03-02T15:52:53.391Z,95450.90
2023-03-02T15:55:22.144Z,95455.45
2023-03-02T15:57:50.826Z,95454.22
2023-03-02T16:00:22.687Z,95454.48
2023-03-02T16:02:54.413Z,95461.41
2023-03-02T16:05:23.212Z,95459.09
2023-03-02T16:07:51.922Z,95463.52
2023-03-02T16:10:22.993Z,95457.34
2023-03-02T16:12:59.394Z,95458.97
2023-03-02T16:15:31.721Z,95467.61
2023-03-02T16:18:01.923Z,95475.69
2023-03-02T16:20:37.924Z,95477.02
2023-03-02T16:23:15.618Z,95474.58
2023-03-02T16:25:52.616Z,95477.88
2023-03-02T16:28:25.915Z,95477.57
2023-03-02T16:30:57.484Z,95475.81
2023-03-02T16:33:41.801Z,95476.38
2023-03-02T16:36:13.194Z,95483.09
2023-03-02T16:45:16.978Z,95487.91
2023-03-02T16:47:55.385Z,95479.66
2023-03-02T16:50:33.108Z,95486.92
2023-03-02T16:53:04.949Z,95484.38
2023-03-02T16:55:33.874Z,95488.36
2023-03-02T16:58:02.749Z,95493.52
2023-03-02T17:00:36.508Z,95490.44
2023-03-02T17:03:16.766Z,95491.88
2023-03-02T17:05:45.833Z,95497.25
2023-03-02T17:08:25.587Z,95497.48
2023-03-02T17:10:54.699Z,95501.46
2023-03-02T17:13:26.433Z,95503.41
2023-03-02T17:15:56.046Z,95496.55
2023-03-02T17:18:28.253Z,95496.34
2023-03-02T17:20:59.178Z,95499.84
2023-03-02T17:26:29.547Z,95498.74
2023-03-02T17:28:58.256Z,95498.31
2023-03-02T17:33:01.482Z,95504.25
2023-03-02T17:45:13.980Z,95501.02
2023-03-02T18:05:10.232Z,95505.17
2023-03-02T18:07:39.098Z,95436.23
2023-03-02T18:10:08.687Z,95505.76
2023-03-02T18:12:44.844Z,95503.72
2023-03-02T18:15:14.058Z,95498.88
2023-03-02T18:17:45.559Z,95498.16
2023-03-02T18:20:25.948Z,95500.22
2023-03-02T18:23:08.173Z,95505.58
2023-03-02T18:25:37.061Z,95502.09
2023-03-02T18:28:07.981Z,95495.23
2023-03-02T18:30:38.295Z,95495.89
2023-03-02T18:33:06.912Z,95492.77
2023-03-02T18:35:37.108Z,95499.60
2023-03-02T18:38:07.251Z,95492.48
2023-03-02T18:40:37.585Z,95488.08
2023-03-02T18:43:09.928Z,95491.00
2023-03-02T18:45:41.940Z,95490.97
2023-03-02T18:48:10.645Z,95493.62
2023-03-02T18:50:40.734Z,95492.84
2023-03-02T18:53:30.149Z,95498.05
2023-03-02T18:58:54.702Z,95487.00
2023-03-02T19:01:24.006Z,95486.45
2023-03-02T19:03:57.650Z,95497.83
2023-03-02T19:06:26.627Z,95499.29
2023-03-02T19:08:58.610Z,95506.07
2023-03-02T19:11:34.724Z,95505.73
2023-03-02T19:15:06.422Z,95501.93
2023-03-02T19:17:53.821Z,95501.42
2023-03-02T19:20:32.624Z,95499.84
2023-03-02T19:53:40.788Z,95501.83
2023-03-02T20:16:18.627Z,95510.06
2023-03-02T20:19:19.724Z,95508.62
2023-03-02T20:22:09.887Z,95508.55
2023-03-02T20:24:50.611Z,95501.33
2023-03-02T20:27:51.882Z,95507.19
2023-03-02T20:32:24.515Z,95502.75
2023-03-02T20:33:38.827Z,95494.17
2023-03-02T20:36:16.705Z,95496.19
2023-03-02T20:39:06.399Z,95500.91
2023-03-02T20:42:00.931Z,95496.81
2023-03-02T20:44:52.260Z,95493.66
2023-03-02T20:47:20.980Z,95494.20
2023-03-02T20:49:50.279Z,95491.89
2023-03-02T20:52:29.324Z,95491.93
2023-03-02T20:55:00.452Z,95490.24
2023-03-02T20:57:29.238Z,95493.84
2023-03-02T20:59:58.524Z,95487.97
2023-03-02T21:02:28.215Z,95487.64
2023-03-02T21:04:58.654Z,95484.77
2023-03-02T21:07:34.406Z,95482.75
2023-03-02T21:10:12.913Z,95478.79
2023-03-02T21:12:45.189Z,95481.06
2023-03-02T21:15:14.188Z,95484.62
2023-03-02T21:17:42.973Z,95479.71
2023-03-02T21:20:13.451Z,95476.92
2023-03-02T21:22:42.609Z,95478.58
2023-03-02T21:25:11.989Z,95475.86
2023-03-02T21:27:48.370Z,95478.28
2023-03-02T21:30:22.700Z,95468.95
2023-03-02T21:32:52.070Z,95468.66
2023-03-02T21:35:23.538Z,95468.22
2023-03-02T21:37:55.583Z,95465.95
2023-03-02T21:40:32.196Z,95466.50
2023-03-02T21:43:04.028Z,95465.70
2023-03-02T21:45:33.422Z,95464.92
2023-03-02T21:48:03.224Z,95460.73
2023-03-02T21:50:36.759Z,95460.30
2023-03-02T21:53:09.570Z,95469.80
2023-03-02T21:55:41.877Z,95456.16
2023-03-02T21:58:11.648Z,95461.40
2023-03-02T22:00:45.700Z,95455.02
2023-03-02T22:03:15.164Z,95451.64
2023-03-02T22:05:44.091Z,95447.34
2023-03-02T22:08:20.386Z,95445.33
2023-03-02T22:10:52.024Z,95446.02
2023-03-02T22:13:29.254Z,95439.86
2023-03-02T22:16:02.604Z,95444.56
2023-03-02T22:18:32.886Z,95443.72
2023-03-02T22:21:02.572Z,95437.34
2023-03-02T22:23:32.551Z,95426.98
2023-03-02T22:26:04.085Z,95427.98
2023-03-02T22:28:35.754Z,95431.80
2023-03-02T22:31:05.840Z,95427.13
2023-03-02T22:33:36.591Z,95429.11
2023-03-02T22:36:08.335Z,95430.88
2023-03-02T22:38:37.010Z,95424.92
2023-03-02T22:41:08.660Z,95425.81
2023-03-02T22:43:37.280Z,95417.41
2023-03-02T22:46:20.044Z,95421.48
2023-03-02T22:48:51.217Z,95417.89
2023-03-02T22:51:22.695Z,95420.89
2023-03-02T22:54:00.390Z,95411.72
2023-03-02T22:56:33.943Z,95413.04
2023-03-02T22:59:05.303Z,95413.34
2023-03-02T23:01:45.376Z,95408.50
2023-03-02T23:04:28.328Z,95400.88
2023-03-02T23:07:03.630Z,95401.67
2023-03-02T23:09:34.749Z,95395.88
2023-03-02T23:12:24.581Z,95393.69
2023-03-02T23:15:01.898Z,95393.42
2023-03-02T23:17:42.339Z,95392.44
2023-03-02T23:20:15.845Z,95395.77
2023-03-02T23:22:44.955Z,95398.16
2023-03-02T23:25:14.827Z,95398.13
2023-03-02T23:27:50.386Z,95395.41
2023-03-02T23:30:20.734Z,95395.16
2023-03-02T23:32:51.085Z,95389.65
2023-03-02T23:35:21.962Z,95384.00
2023-03-02T23:37:50.911Z,95384.00
2023-03-02T23:40:21.364Z,95384.99
2023-03-02T23:42:55.724Z,95382.68
2023-03-02T23:45:28.424Z,95381.11
2023-03-02T23:48:00.555Z,95379.23
2023-03-02T23:50:30.397Z,95383.67
2023-03-02T23:52:59.262Z,95375.17
2023-03-02T23:55:28.496Z,95376.96
2023-03-02T23:58:00.323Z,95372.78
